createdAt,value
2019-03-08T00:00:02.214Z,8.30
2019-03-08T00:02:33.533Z,8.30
2019-03-08T00:05:05.028Z,8.30
2019-03-08T00:07:33.371Z,8.40
2019-03-08T00:10:03.198Z,8.40
2019-03-08T00:12:30.840Z,8.40
2019-03-08T00:14:59.644Z,8.40
2019-03-08T00:17:31.020Z,8.40
2019-03-08T00:19:59.154Z,8.40
2019-03-08T00:22:29.658Z,8.40
2019-03-08T00:24:57.257Z,8.40
2019-03-08T00:27:25.170Z,8.40
2019-03-08T00:29:55.584Z,8.40
2019-03-08T00:32:24.460Z,8.40
2019-03-08T00:34:56.460Z,8.40
2019-03-08T00:37:28.112Z,8.40
2019-03-08T00:40:02.933Z,8.40
2019-03-08T00:42:30.556Z,8.40
2019-03-08T00:44:58.596Z,8.40
2019-03-08T00:47:29.976Z,8.40
2019-03-08T00:50:00.418Z,8.40
2019-03-08T00:52:32.964Z,8.40
2019-03-08T00:55:04.576Z,8.40
2019-03-08T00:57:35.626Z,8.40
2019-03-08T01:00:08.938Z,8.40
2019-03-08T01:02:37.666Z,8.50
2019-03-08T01:05:06.500Z,8.50
2019-03-08T01:07:40.506Z,8.50
2019-03-08T01:10:12.597Z,8.40
2019-03-08T01:12:41.280Z,8.50
2019-03-08T01:15:10.301Z,8.50
2019-03-08T01:17:38.276Z,8.50
2019-03-08T01:20:07.869Z,8.50
2019-03-08T01:22:39.473Z,8.50
2019-03-08T01:25:10.941Z,8.50
2019-03-08T01:28:12.677Z,8.50
2019-03-08T01:30:41.462Z,8.50
2019-03-08T01:33:14.334Z,8.40
2019-03-08T01:35:42.926Z,8.40
2019-03-08T01:38:12.886Z,8.40
2019-03-08T01:40:43.275Z,8.40
2019-03-08T01:43:11.195Z,8.40
2019-03-08T01:45:41.943Z,8.40
2019-03-08T01:48:09.965Z,8.40
2019-03-08T01:50:38.003Z,8.40
2019-03-08T01:53:06.809Z,8.40
2019-03-08T01:55:41.217Z,8.40
2019-03-08T01:58:15.019Z,8.40
2019-03-08T02:00:46.139Z,8.40
2019-03-08T02:03:21.136Z,8.40
2019-03-08T02:05:52.206Z,8.40
2019-03-08T02:08:20.109Z,8.40
2019-03-08T02:10:47.907Z,8.40
2019-03-08T02:13:16.947Z,8.40
2019-03-08T02:15:46.918Z,8.30
2019-03-08T02:18:14.452Z,8.30
2019-03-08T02:20:43.341Z,8.20
2019-03-08T02:23:10.930Z,7.90
2019-03-08T02:25:45.621Z,7.50
2019-03-08T02:28:14.533Z,7.30
2019-03-08T02:30:42.317Z,7.20
2019-03-08T02:33:11.285Z,7.00
2019-03-08T02:35:39.069Z,7.00
2019-03-08T02:38:06.560Z,6.90
2019-03-08T02:40:37.273Z,6.80
2019-03-08T02:43:12.794Z,6.90
2019-03-08T02:45:40.397Z,6.80
2019-03-08T02:48:07.939Z,6.80
2019-03-08T02:50:37.667Z,6.80
2019-03-08T02:53:05.386Z,6.70
2019-03-08T02:55:33.164Z,6.70
2019-03-08T02:58:01.072Z,6.80
2019-03-08T03:00:32.827Z,6.70
2019-03-08T03:03:00.331Z,6.70
2019-03-08T03:05:27.866Z,6.70
2019-03-08T03:07:55.371Z,6.60
2019-03-08T03:10:23.223Z,6.60
2019-03-08T03:12:50.704Z,6.60
2019-03-08T03:15:18.277Z,6.60
2019-03-08T03:17:45.777Z,6.70
2019-03-08T03:20:13.595Z,6.60
2019-03-08T03:22:41.386Z,6.70
2019-03-08T03:25:09.286Z,6.60
2019-03-08T03:27:36.770Z,6.60
2019-03-08T03:30:05.134Z,6.70
2019-03-08T03:32:32.679Z,6.70
2019-03-08T03:35:00.308Z,6.70
2019-03-08T03:37:28.650Z,6.70
2019-03-08T03:39:56.586Z,6.70
2019-03-08T03:42:24.226Z,6.80
2019-03-08T03:44:54.808Z,6.80
2019-03-08T03:47:22.365Z,6.80
2019-03-08T03:49:49.812Z,6.80
2019-03-08T03:52:17.324Z,6.80
2019-03-08T03:54:44.857Z,6.80
2019-03-08T03:57:12.645Z,6.80
2019-03-08T04:02:47.354Z,6.80
2019-03-08T04:05:14.849Z,6.90
2019-03-08T04:07:42.386Z,6.80
2019-03-08T04:10:10.818Z,6.90
2019-03-08T04:12:38.268Z,6.90
2019-03-08T04:15:07.344Z,6.90
2019-03-08T04:17:34.947Z,6.90
2019-03-08T04:20:02.622Z,6.90
2019-03-08T04:22:30.184Z,6.90
2019-03-08T04:24:57.674Z,6.90
2019-03-08T04:27:25.208Z,7.00
2019-03-08T04:29:52.728Z,7.00
2019-03-08T04:32:20.274Z,6.90
2019-03-08T04:34:47.792Z,6.90
2019-03-08T04:37:15.310Z,7.00
2019-03-08T04:39:42.830Z,6.90
2019-03-08T04:42:11.883Z,6.90
2019-03-08T04:44:39.396Z,6.90
2019-03-08T04:47:06.928Z,6.90
2019-03-08T04:49:34.422Z,6.90
2019-03-08T04:52:02.364Z,6.90
2019-03-08T04:54:31.884Z,6.90
2019-03-08T04:56:59.510Z,6.90
2019-03-08T04:59:26.987Z,6.90
2019-03-08T05:01:54.652Z,6.90
2019-03-08T05:04:22.153Z,6.80
2019-03-08T05:06:49.680Z,6.80
2019-03-08T05:09:17.192Z,6.70
2019-03-08T05:11:44.695Z,6.70
2019-03-08T05:14:12.233Z,6.60
2019-03-08T05:16:39.798Z,6.60
2019-03-08T05:19:07.280Z,6.60
2019-03-08T05:21:35.234Z,6.50
2019-03-08T05:24:03.182Z,6.50
2019-03-08T05:26:32.505Z,6.50
2019-03-08T05:28:59.986Z,6.50
2019-03-08T05:31:27.525Z,6.50
2019-03-08T05:33:55.145Z,6.40
2019-03-08T05:36:22.728Z,6.40
2019-03-08T05:38:50.294Z,6.40
2019-03-08T05:41:17.785Z,6.40
2019-03-08T05:43:45.329Z,6.30
2019-03-08T05:46:13.292Z,6.30
2019-03-08T05:48:41.152Z,6.30
2019-03-08T05:51:08.703Z,6.20
2019-03-08T05:53:36.381Z,6.30
2019-03-08T05:56:05.362Z,6.20
2019-03-08T05:58:34.070Z,6.20
2019-03-08T06:01:01.610Z,6.20
2019-03-08T06:03:29.101Z,6.20
2019-03-08T06:05:56.625Z,6.10
2019-03-08T06:08:24.137Z,6.10
2019-03-08T06:10:52.481Z,6.10
2019-03-08T06:13:33.326Z,6.10
2019-03-08T06:16:11.325Z,6.00
2019-03-08T06:18:38.817Z,6.10
2019-03-08T06:21:06.368Z,5.90
2019-03-08T06:23:35.171Z,6.00
2019-03-08T06:26:02.716Z,6.00
2019-03-08T06:28:31.694Z,6.00
2019-03-08T06:31:02.340Z,6.00
2019-03-08T06:33:35.415Z,6.00
2019-03-08T06:36:13.749Z,6.00
2019-03-08T06:38:42.593Z,6.00
2019-03-08T06:41:11.381Z,5.90
2019-03-08T06:43:40.417Z,5.90
2019-03-08T06:46:09.517Z,6.00
2019-03-08T06:48:41.568Z,6.00
2019-03-08T06:51:24.714Z,6.00
2019-03-08T06:53:53.467Z,6.00
2019-03-08T06:56:23.434Z,6.00
2019-03-08T06:59:11.410Z,6.10
2019-03-08T07:01:41.623Z,6.00
2019-03-08T07:04:09.480Z,6.10
2019-03-08T07:06:48.919Z,6.10
2019-03-08T07:09:18.835Z,6.10
2019-03-08T07:11:46.883Z,6.10
2019-03-08T07:14:14.367Z,6.10
2019-03-08T07:16:41.884Z,6.20
2019-03-08T07:19:09.411Z,6.20
2019-03-08T07:22:02.894Z,6.20
2019-03-08T07:24:40.877Z,6.30
2019-03-08T07:27:42.755Z,6.30
2019-03-08T07:30:32.787Z,6.30
2019-03-08T07:33:15.676Z,6.30
2019-03-08T07:36:02.826Z,6.40
2019-03-08T07:38:50.835Z,6.40
2019-03-08T07:41:28.983Z,6.40
2019-03-08T07:44:33.970Z,6.50
2019-03-08T07:47:42.003Z,6.60
2019-03-08T07:50:42.402Z,6.70
2019-03-08T07:53:29.372Z,6.70
2019-03-08T07:56:06.338Z,6.70
2019-03-08T07:58:45.500Z,6.80
2019-03-08T08:01:20.384Z,6.80
2019-03-08T08:04:36.447Z,6.90
2019-03-08T08:07:35.460Z,6.90
2019-03-08T08:10:14.490Z,7.00
2019-03-08T08:13:20.584Z,7.00
2019-03-08T08:16:06.218Z,7.10
2019-03-08T08:19:11.688Z,7.10
2019-03-08T08:21:59.986Z,7.30
2019-03-08T08:24:39.893Z,7.30
2019-03-08T08:27:33.202Z,7.30
2019-03-08T08:30:23.502Z,7.40
2019-03-08T08:33:20.735Z,7.50
2019-03-08T08:36:05.234Z,7.50
2019-03-08T08:39:01.441Z,7.60
2019-03-08T08:41:34.984Z,7.60
2019-03-08T08:44:24.759Z,7.70
2019-03-08T08:47:10.298Z,7.80
2019-03-08T08:50:01.724Z,7.80
2019-03-08T08:52:39.520Z,7.90
2019-03-08T08:55:25.200Z,8.00
2019-03-08T08:58:12.473Z,8.10
2019-03-08T09:01:02.868Z,8.20
2019-03-08T09:03:57.236Z,8.20
2019-03-08T09:06:45.750Z,8.30
2019-03-08T09:09:48.020Z,8.40
2019-03-08T09:12:29.283Z,8.50
2019-03-08T09:15:22.852Z,8.60
2019-03-08T09:18:02.400Z,8.70
2019-03-08T09:20:48.146Z,8.80
2019-03-08T09:23:37.962Z,8.90
2019-03-08T09:26:43.001Z,9.10
2019-03-08T09:29:40.988Z,9.20
2019-03-08T09:32:10.099Z,9.30
2019-03-08T09:34:56.845Z,9.40
2019-03-08T09:37:43.873Z,9.60
2019-03-08T09:40:34.703Z,9.70
2019-03-08T09:43:20.489Z,9.80
2019-03-08T09:46:13.133Z,10.00
2019-03-08T09:49:01.611Z,10.20
2019-03-08T09:51:48.901Z,10.20
2019-03-08T09:54:35.941Z,10.30
2019-03-08T09:57:31.273Z,10.40
2019-03-08T10:00:18.566Z,10.60
2019-03-08T10:02:54.224Z,10.70
2019-03-08T10:05:32.105Z,10.70
2019-03-08T10:08:05.695Z,10.80
2019-03-08T10:10:51.293Z,10.70
2019-03-08T10:13:48.537Z,10.60
2019-03-08T10:16:27.755Z,10.50
2019-03-08T10:19:13.373Z,10.70
2019-03-08T10:21:59.365Z,10.60
2019-03-08T10:24:55.585Z,10.90
2019-03-08T10:27:37.878Z,11.10
2019-03-08T10:30:27.566Z,11.40
2019-03-08T10:33:20.904Z,11.70
2019-03-08T10:36:07.531Z,12.10
2019-03-08T10:38:51.281Z,12.70
2019-03-08T10:41:29.097Z,12.60
2019-03-08T10:44:15.530Z,12.80
2019-03-08T10:46:59.128Z,12.30
2019-03-08T10:49:54.718Z,12.00
2019-03-08T10:52:30.247Z,11.90
2019-03-08T10:55:26.161Z,12.20
2019-03-08T10:58:20.991Z,12.00
2019-03-08T11:01:07.813Z,11.70
2019-03-08T11:04:03.735Z,12.20
2019-03-08T11:06:41.406Z,12.70
2019-03-08T11:09:45.883Z,13.00
2019-03-08T11:12:54.091Z,12.70
2019-03-08T11:16:03.116Z,12.50
2019-03-08T11:19:08.466Z,12.60
2019-03-08T11:21:40.333Z,13.00
2019-03-08T11:24:14.067Z,12.60
2019-03-08T11:27:04.928Z,12.80
2019-03-08T11:29:59.774Z,12.90
2019-03-08T11:32:48.987Z,12.70
2019-03-08T11:35:45.386Z,12.30
2019-03-08T11:38:31.016Z,12.00
2019-03-08T11:41:22.383Z,12.50
2019-03-08T11:44:12.470Z,12.50
2019-03-08T11:47:06.938Z,12.20
2019-03-08T11:49:56.684Z,12.20
2019-03-08T11:52:50.920Z,11.90
2019-03-08T11:55:40.608Z,11.70
2019-03-08T11:58:16.834Z,11.50
2019-03-08T12:00:57.876Z,11.40
2019-03-08T12:04:04.664Z,11.40
2019-03-08T12:06:58.236Z,11.40
2019-03-08T12:09:54.391Z,11.60
2019-03-08T12:12:56.686Z,11.70
2019-03-08T12:15:42.332Z,11.70
2019-03-08T12:18:30.798Z,11.70
2019-03-08T12:21:22.186Z,11.70
2019-03-08T12:24:03.445Z,11.80
2019-03-08T12:26:56.366Z,11.80
2019-03-08T12:29:34.796Z,11.70
2019-03-08T12:32:41.350Z,11.60
2019-03-08T12:35:24.703Z,11.60
2019-03-08T12:38:13.533Z,11.60
2019-03-08T12:40:56.468Z,11.90
2019-03-08T12:43:46.580Z,12.60
2019-03-08T12:46:36.813Z,13.10
2019-03-08T12:49:25.789Z,13.60
2019-03-08T12:52:05.160Z,14.00
2019-03-08T12:54:55.070Z,13.80
2019-03-08T12:57:36.849Z,13.60
2019-03-08T13:00:46.704Z,13.20
2019-03-08T13:03:27.145Z,13.00
2019-03-08T13:06:26.235Z,13.20
2019-03-08T13:09:06.576Z,13.10
2019-03-08T13:11:36.653Z,13.80
2019-03-08T13:14:04.118Z,14.70
2019-03-08T13:16:33.164Z,15.20
2019-03-08T13:19:00.709Z,16.00
2019-03-08T13:21:32.179Z,16.50
2019-03-08T13:24:02.383Z,16.30
2019-03-08T13:26:31.025Z,16.70
2019-03-08T13:28:58.601Z,16.30
2019-03-08T13:31:28.682Z,16.00
2019-03-08T13:33:59.573Z,15.90
2019-03-08T13:36:28.438Z,16.60
2019-03-08T13:38:55.969Z,16.90
2019-03-08T13:41:23.984Z,17.70
2019-03-08T13:43:54.035Z,17.70
2019-03-08T13:46:23.050Z,17.50
2019-03-08T13:48:52.407Z,17.50
2019-03-08T13:51:20.850Z,16.90
2019-03-08T13:53:48.692Z,16.60
2019-03-08T13:56:16.666Z,16.10
2019-03-08T13:58:44.952Z,16.00
2019-03-08T14:01:12.563Z,16.10
2019-03-08T14:03:40.580Z,15.80
2019-03-08T14:06:08.924Z,15.80
2019-03-08T14:08:36.450Z,15.60
2019-03-08T14:11:04.266Z,15.50
2019-03-08T14:13:32.949Z,15.50
2019-03-08T14:16:01.286Z,15.20
2019-03-08T14:18:28.813Z,15.10
2019-03-08T14:20:56.340Z,14.90
2019-03-08T14:23:23.874Z,14.70
2019-03-08T14:25:51.741Z,14.50
2019-03-08T14:28:20.780Z,14.30
2019-03-08T14:31:03.479Z,14.00
2019-03-08T14:33:34.277Z,13.80
2019-03-08T14:36:02.972Z,13.50
2019-03-08T14:38:36.422Z,13.40
2019-03-08T14:41:23.634Z,13.30
2019-03-08T14:44:02.709Z,13.10
2019-03-08T14:46:52.984Z,12.80
2019-03-08T14:49:22.797Z,12.60
2019-03-08T14:51:50.503Z,12.40
2019-03-08T14:54:18.091Z,12.30
2019-03-08T14:56:48.178Z,12.30
2019-03-08T14:59:16.846Z,12.30
2019-03-08T15:01:44.485Z,12.30
2019-03-08T15:04:13.121Z,12.30
2019-03-08T15:06:40.579Z,12.20
2019-03-08T15:09:11.478Z,12.20
2019-03-08T15:11:39.197Z,12.10
2019-03-08T15:14:07.102Z,12.00
2019-03-08T15:16:35.360Z,12.00
2019-03-08T15:19:04.920Z,12.00
2019-03-08T15:21:36.715Z,11.90
2019-03-08T15:24:02.488Z,11.80
2019-03-08T15:26:30.050Z,11.80
2019-03-08T15:28:57.800Z,11.70
2019-03-08T15:31:25.376Z,11.70
2019-03-08T15:33:52.927Z,11.70
2019-03-08T15:36:20.458Z,11.60
2019-03-08T15:38:47.983Z,11.60
2019-03-08T15:41:15.976Z,11.60
2019-03-08T15:43:46.864Z,11.50
2019-03-08T15:46:14.333Z,11.50
2019-03-08T15:48:41.974Z,11.40
2019-03-08T15:51:09.700Z,11.30
2019-03-08T15:53:37.189Z,11.30
2019-03-08T15:56:05.056Z,11.20
2019-03-08T15:58:32.916Z,11.20
2019-03-08T16:01:00.488Z,11.20
2019-03-08T16:03:30.158Z,11.10
2019-03-08T16:05:57.376Z,11.10
2019-03-08T16:08:25.096Z,11.10
2019-03-08T16:10:53.930Z,11.10
2019-03-08T16:13:23.100Z,11.00
2019-03-08T16:15:50.559Z,11.00
2019-03-08T16:18:18.076Z,10.90
2019-03-08T16:20:45.594Z,10.90
2019-03-08T16:23:14.118Z,10.80
2019-03-08T16:25:47.532Z,10.80
2019-03-08T16:28:10.945Z,10.80
2019-03-08T16:30:40.045Z,10.80
2019-03-08T16:33:16.404Z,10.90
2019-03-08T16:35:54.310Z,10.90
2019-03-08T16:38:41.313Z,10.80
2019-03-08T16:41:28.427Z,10.80
2019-03-08T16:44:12.068Z,10.80
2019-03-08T16:46:57.560Z,10.70
2019-03-08T16:49:32.968Z,10.70
2019-03-08T16:52:23.339Z,10.70
2019-03-08T16:55:28.534Z,10.70
2019-03-08T16:58:28.007Z,10.70
2019-03-08T17:01:10.991Z,10.60
2019-03-08T17:03:47.548Z,10.60
2019-03-08T17:06:32.386Z,10.60
2019-03-08T17:09:08.652Z,10.60
2019-03-08T17:12:01.923Z,10.60
2019-03-08T17:14:47.794Z,10.50
2019-03-08T17:17:32.506Z,10.50
2019-03-08T17:20:19.535Z,10.50
2019-03-08T17:23:09.389Z,10.50
2019-03-08T17:26:08.362Z,10.40
2019-03-08T17:28:44.549Z,10.40
2019-03-08T17:31:37.273Z,10.40
2019-03-08T17:34:26.900Z,10.40
2019-03-08T17:37:03.896Z,10.40
2019-03-08T17:39:50.488Z,10.40
2019-03-08T17:42:36.465Z,10.30
2019-03-08T17:45:22.635Z,10.30
2019-03-08T17:48:12.572Z,10.30
2019-03-08T17:51:11.397Z,10.30
2019-03-08T17:53:57.083Z,10.20
2019-03-08T17:56:33.588Z,10.20
2019-03-08T17:59:20.579Z,10.20
2019-03-08T18:02:03.255Z,10.20
2019-03-08T18:04:51.505Z,10.20
2019-03-08T18:07:42.139Z,10.10
2019-03-08T18:10:20.508Z,10.10
2019-03-08T18:13:19.487Z,10.10
2019-03-08T18:16:09.329Z,10.10
2019-03-08T18:19:05.435Z,10.10
2019-03-08T18:21:58.348Z,10.10
2019-03-08T18:24:51.165Z,10.10
2019-03-08T18:27:41.389Z,10.10
2019-03-08T18:30:44.429Z,10.10
2019-03-08T18:33:37.416Z,10.10
2019-03-08T18:36:32.113Z,10.00
2019-03-08T18:39:19.018Z,10.10
2019-03-08T18:42:08.683Z,10.10
2019-03-08T18:45:05.128Z,10.10
2019-03-08T18:47:47.326Z,10.10
2019-03-08T18:50:33.382Z,10.10
2019-03-08T18:53:20.223Z,10.10
2019-03-08T18:56:22.642Z,10.00
2019-03-08T18:59:08.386Z,10.00
2019-03-08T19:01:46.906Z,9.90
2019-03-08T19:04:31.105Z,9.80
2019-03-08T19:07:24.008Z,9.70
2019-03-08T19:10:00.395Z,9.60
2019-03-08T19:12:43.404Z,9.60
2019-03-08T19:15:25.212Z,9.50
2019-03-08T19:18:24.600Z,9.40
2019-03-08T19:21:02.718Z,9.20
2019-03-08T19:23:37.812Z,8.90
2019-03-08T19:26:23.479Z,8.60
2019-03-08T19:29:02.367Z,8.50
2019-03-08T19:31:58.217Z,8.40
2019-03-08T19:34:40.012Z,8.30
2019-03-08T19:37:37.736Z,8.30
2019-03-08T19:40:30.957Z,8.30
2019-03-08T19:43:16.266Z,8.30
2019-03-08T19:45:59.981Z,8.30
2019-03-08T19:48:53.983Z,8.30
2019-03-08T19:51:57.377Z,8.30
2019-03-08T19:54:56.290Z,8.40
2019-03-08T19:57:41.805Z,8.50
2019-03-08T20:00:27.593Z,8.50
2019-03-08T20:03:28.092Z,8.50
2019-03-08T20:06:17.808Z,8.60
2019-03-08T20:09:16.013Z,8.60
2019-03-08T20:12:07.879Z,8.60
2019-03-08T20:15:12.173Z,8.60
2019-03-08T20:17:59.219Z,8.60
2019-03-08T20:20:41.300Z,8.70
2019-03-08T20:23:32.926Z,8.70
2019-03-08T20:26:23.649Z,8.80
2019-03-08T20:29:27.265Z,8.80
2019-03-08T20:32:29.820Z,8.80
2019-03-08T20:35:35.040Z,8.80
2019-03-08T20:38:31.918Z,8.80
2019-03-08T20:41:39.927Z,8.80
2019-03-08T20:44:20.551Z,8.90
2019-03-08T20:46:57.031Z,8.90
2019-03-08T20:49:29.288Z,8.80
2019-03-08T20:52:01.118Z,8.90
2019-03-08T20:54:28.741Z,8.90
2019-03-08T20:57:00.425Z,8.90
2019-03-08T20:59:31.632Z,8.90
2019-03-08T21:02:01.496Z,8.80
2019-03-08T21:04:32.144Z,8.80
2019-03-08T21:07:16.499Z,8.80
2019-03-08T21:09:43.965Z,8.80
2019-03-08T21:12:16.744Z,8.80
2019-03-08T21:14:44.558Z,8.80
2019-03-08T21:17:13.902Z,8.80
2019-03-08T21:19:44.344Z,8.70
2019-03-08T21:22:15.584Z,8.80
2019-03-08T21:24:47.720Z,8.80
2019-03-08T21:27:18.886Z,8.80
2019-03-08T21:29:52.589Z,8.80
2019-03-08T21:32:22.432Z,8.80
2019-03-08T21:34:51.057Z,8.90
2019-03-08T21:37:18.962Z,8.90
2019-03-08T21:39:47.904Z,8.90
2019-03-08T21:42:17.686Z,8.90
2019-03-08T21:44:51.710Z,8.90
2019-03-08T21:47:22.485Z,8.80
2019-03-08T21:49:50.173Z,8.80
2019-03-08T21:52:20.655Z,8.90
2019-03-08T21:54:57.937Z,8.80
2019-03-08T21:57:27.300Z,8.90
2019-03-08T22:00:01.914Z,8.90
2019-03-08T22:02:31.642Z,8.90
2019-03-08T22:05:02.808Z,8.90
2019-03-08T22:07:34.611Z,8.90
2019-03-08T22:10:37.750Z,8.90
2019-03-08T22:13:09.995Z,8.90
2019-03-08T22:15:38.868Z,8.80
2019-03-08T22:18:10.380Z,8.80
2019-03-08T22:20:40.489Z,8.70
2019-03-08T22:23:09.224Z,8.70
2019-03-08T22:25:38.464Z,8.70
2019-03-08T22:28:08.277Z,8.60
2019-03-08T22:30:38.604Z,8.70
2019-03-08T22:33:08.485Z,8.60
2019-03-08T22:35:39.845Z,8.60
2019-03-08T22:38:07.775Z,8.70
2019-03-08T22:40:38.079Z,8.60
2019-03-08T22:43:07.545Z,8.60
2019-03-08T22:45:37.963Z,8.60
2019-03-08T22:48:05.790Z,8.60
2019-03-08T22:50:37.372Z,8.60
2019-03-08T22:53:05.021Z,8.50
2019-03-08T22:55:37.359Z,8.50
2019-03-08T22:58:06.923Z,8.50
2019-03-08T23:01:09.565Z,8.50
2019-03-08T23:03:41.559Z,8.50
2019-03-08T23:06:11.816Z,8.60
2019-03-08T23:08:41.223Z,8.60
2019-03-08T23:11:14.284Z,8.60
2019-03-08T23:13:45.969Z,8.60
2019-03-08T23:16:18.197Z,8.60
2019-03-08T23:18:51.559Z,8.60
2019-03-08T23:21:21.983Z,8.50
2019-03-08T23:23:51.354Z,8.50
2019-03-08T23:26:21.407Z,8.50
2019-03-08T23:29:05.440Z,8.50
2019-03-08T23:32:03.507Z,8.50
2019-03-08T23:34:34.108Z,8.40
2019-03-08T23:37:02.706Z,8.50
2019-03-08T23:39:31.694Z,8.40
2019-03-08T23:42:06.162Z,8.50
2019-03-08T23:44:33.958Z,8.50
2019-03-08T23:47:02.262Z,8.40
2019-03-08T23:49:30.006Z,8.40
2019-03-08T23:52:01.854Z,8.30
2019-03-08T23:54:32.895Z,8.30
2019-03-08T23:57:04.354Z,8.30
2019-03-08T23:59:35.268Z,8.30
